createdAt,value
2018-01-21T00:00:49.310Z,20.47
2018-01-21T00:02:55.380Z,20.45
2018-01-21T00:05:01.495Z,20.47
2018-01-21T00:07:07.994Z,20.39
2018-01-21T00:09:13.911Z,20.50
2018-01-21T00:11:19.643Z,20.43
2018-01-21T00:13:25.621Z,20.49
2018-01-21T00:15:31.927Z,20.49
2018-01-21T00:17:37.840Z,20.43
2018-01-21T00:19:43.407Z,20.41
2018-01-21T00:21:49.367Z,20.48
2018-01-21T00:23:55.067Z,20.49
2018-01-21T00:26:00.785Z,20.52
2018-01-21T00:28:06.929Z,20.48
2018-01-21T00:30:12.917Z,20.52
2018-01-21T00:32:20.303Z,20.42
2018-01-21T00:34:26.027Z,20.42
2018-01-21T00:36:32.139Z,20.49
2018-01-21T00:38:38.353Z,20.53
2018-01-21T00:40:44.040Z,20.46
2018-01-21T00:42:50.286Z,20.49
2018-01-21T00:44:56.549Z,20.52
2018-01-21T00:47:06.179Z,20.51
2018-01-21T00:49:19.146Z,20.52
2018-01-21T00:51:25.271Z,20.44
2018-01-21T00:56:05.892Z,20.36
2018-01-21T00:58:19.578Z,20.29
2018-01-21T01:00:26.301Z,20.28
2018-01-21T01:02:32.839Z,20.33
2018-01-21T01:04:38.634Z,20.29
2018-01-21T01:06:44.270Z,20.28
2018-01-21T01:08:51.662Z,20.21
2018-01-21T01:10:57.668Z,20.24
2018-01-21T01:13:03.491Z,20.20
2018-01-21T01:15:09.954Z,20.22
2018-01-21T01:17:18.965Z,20.17
2018-01-21T01:19:25.707Z,20.19
2018-01-21T01:21:31.504Z,20.12
2018-01-21T01:23:37.608Z,20.09
2018-01-21T01:25:44.409Z,20.11
2018-01-21T01:27:50.793Z,20.21
2018-01-21T01:29:56.445Z,20.09
2018-01-21T01:32:02.323Z,20.02
2018-01-21T01:34:08.247Z,20.03
2018-01-21T01:36:13.889Z,20.11
2018-01-21T01:38:26.397Z,20.04
2018-01-21T01:40:32.254Z,20.03
2018-01-21T01:42:38.047Z,20.01
2018-01-21T01:44:43.832Z,19.97
2018-01-21T01:46:49.899Z,19.97
2018-01-21T01:48:58.315Z,19.94
2018-01-21T01:51:04.035Z,19.95
2018-01-21T01:53:10.241Z,19.93
2018-01-21T01:55:16.014Z,19.88
2018-01-21T01:57:21.626Z,19.89
2018-01-21T01:59:28.517Z,19.88
2018-01-21T02:01:35.005Z,19.88
2018-01-21T02:03:42.043Z,19.78
2018-01-21T02:05:47.922Z,19.82
2018-01-21T02:07:53.788Z,19.83
2018-01-21T02:10:00.212Z,19.84
2018-01-21T02:12:09.452Z,19.88
2018-01-21T02:14:15.591Z,19.86
2018-01-21T02:16:22.385Z,19.81
2018-01-21T02:18:29.072Z,19.83
2018-01-21T02:20:37.494Z,19.83
2018-01-21T02:22:44.601Z,19.80
2018-01-21T02:24:50.458Z,19.81
2018-01-21T02:26:57.249Z,19.82
2018-01-21T02:29:03.537Z,19.77
2018-01-21T02:31:09.555Z,19.74
2018-01-21T02:33:15.632Z,19.78
2018-01-21T02:35:21.995Z,19.72
2018-01-21T02:37:28.228Z,19.76
2018-01-21T02:39:34.532Z,19.83
2018-01-21T02:41:40.155Z,19.78
2018-01-21T02:43:48.927Z,19.80
2018-01-21T02:45:54.657Z,19.78
2018-01-21T02:48:00.342Z,19.74
2018-01-21T02:50:09.866Z,19.76
2018-01-21T02:52:15.723Z,19.79
2018-01-21T02:54:22.048Z,19.83
2018-01-21T02:56:29.875Z,19.80
2018-01-21T02:58:37.441Z,19.83
2018-01-21T03:00:45.281Z,19.82
2018-01-21T03:02:51.658Z,19.84
2018-01-21T03:04:58.239Z,19.87
2018-01-21T03:07:05.008Z,19.85
2018-01-21T03:09:10.741Z,19.86
2018-01-21T03:11:17.057Z,19.86
2018-01-21T03:13:23.327Z,19.89
2018-01-21T03:15:29.362Z,19.89
2018-01-21T03:17:35.250Z,19.85
2018-01-21T03:19:41.051Z,19.81
2018-01-21T03:21:47.357Z,19.87
2018-01-21T03:23:53.387Z,19.87
2018-01-21T03:25:59.202Z,19.81
2018-01-21T03:28:05.666Z,19.80
2018-01-21T03:30:11.654Z,19.88
2018-01-21T03:32:17.284Z,19.88
2018-01-21T03:34:23.218Z,19.90
2018-01-21T03:36:29.405Z,19.87
2018-01-21T03:38:35.300Z,19.87
2018-01-21T03:40:43.012Z,19.88
2018-01-21T03:42:48.735Z,19.88
2018-01-21T03:44:55.042Z,19.90
2018-01-21T03:47:01.981Z,19.88
2018-01-21T03:49:08.502Z,19.90
2018-01-21T03:51:14.587Z,19.88
2018-01-21T03:53:20.757Z,19.88
2018-01-21T03:55:26.394Z,19.86
2018-01-21T03:57:32.397Z,19.93
2018-01-21T03:59:38.221Z,19.83
2018-01-21T04:01:44.401Z,19.88
2018-01-21T04:03:49.990Z,19.88
2018-01-21T04:05:56.574Z,19.80
2018-01-21T04:08:04.379Z,19.78
2018-01-21T04:10:10.766Z,19.79
2018-01-21T04:12:17.428Z,19.81
2018-01-21T04:14:23.310Z,19.82
2018-01-21T04:16:29.561Z,19.78
2018-01-21T04:18:35.287Z,19.76
2018-01-21T04:20:41.495Z,19.80
2018-01-21T04:22:47.300Z,19.77
2018-01-21T04:24:53.493Z,19.80
2018-01-21T04:26:59.573Z,19.82
2018-01-21T04:29:06.297Z,19.80
2018-01-21T04:31:13.107Z,19.81
2018-01-21T04:33:19.408Z,19.83
2018-01-21T04:35:25.639Z,19.81
2018-01-21T04:37:33.781Z,19.75
2018-01-21T04:39:39.761Z,19.69
2018-01-21T04:41:46.846Z,19.80
2018-01-21T04:43:53.554Z,19.71
2018-01-21T04:45:59.964Z,19.72
2018-01-21T04:48:06.044Z,19.65
2018-01-21T04:50:11.728Z,19.66
2018-01-21T04:52:17.419Z,19.70
2018-01-21T04:56:40.629Z,19.66
2018-01-21T04:58:46.753Z,19.64
2018-01-21T16:10:42.694Z,20.18
2018-01-21T16:12:49.726Z,20.22
2018-01-21T16:14:57.309Z,20.16
2018-01-21T16:17:06.136Z,20.23
2018-01-21T16:19:12.461Z,20.17
2018-01-21T16:21:20.021Z,20.18
2018-01-21T16:23:27.247Z,20.18
2018-01-21T16:25:33.158Z,20.18
2018-01-21T16:27:40.346Z,20.25
2018-01-21T16:29:48.606Z,20.22
2018-01-21T16:31:54.596Z,20.23
2018-01-21T16:34:00.543Z,20.24
2018-01-21T16:36:06.498Z,20.34
2018-01-21T16:39:15.794Z,20.36
2018-01-21T16:41:23.010Z,20.24
2018-01-21T16:43:32.420Z,20.24
2018-01-21T16:45:39.010Z,20.32
2018-01-21T16:47:45.055Z,20.37
2018-01-21T16:49:51.181Z,20.24
2018-01-21T16:52:03.241Z,20.25
2018-01-21T16:54:09.771Z,20.30
2018-01-21T16:56:15.792Z,20.22
2018-01-21T16:58:27.821Z,20.24
2018-01-21T17:00:35.042Z,20.23
2018-01-21T17:02:41.194Z,20.32
2018-01-21T17:04:51.255Z,20.21
2018-01-21T17:06:59.029Z,20.17
2018-01-21T17:09:14.278Z,20.13
2018-01-21T17:11:21.330Z,20.11
2018-01-21T17:13:29.789Z,20.20
2018-01-21T17:16:02.705Z,20.27
2018-01-21T17:18:21.364Z,20.22
2018-01-21T17:20:34.343Z,20.21
2018-01-21T17:22:43.034Z,20.25
2018-01-21T17:24:54.156Z,20.29
2018-01-21T17:27:15.049Z,20.36
2018-01-21T17:31:58.204Z,20.29
2018-01-21T17:34:09.545Z,20.40
2018-01-21T17:36:19.443Z,20.42
2018-01-21T17:38:33.468Z,20.32
2018-01-21T17:40:40.893Z,20.33
2018-01-21T17:42:51.524Z,20.32
2018-01-21T17:45:02.586Z,20.32
2018-01-21T17:47:11.620Z,20.40
2018-01-21T17:49:20.993Z,20.36
2018-01-21T17:51:40.400Z,20.27
2018-01-21T17:53:49.761Z,20.28
2018-01-21T17:55:56.533Z,20.16
2018-01-21T17:58:02.989Z,20.24
2018-01-21T18:00:19.373Z,20.23
2018-01-21T18:02:29.767Z,20.28
2018-01-21T18:04:37.724Z,20.32
2018-01-21T18:06:46.866Z,20.24
2018-01-21T18:08:54.500Z,20.27
2018-01-21T18:11:03.777Z,20.26
2018-01-21T18:13:11.738Z,20.16
2018-01-21T18:15:19.627Z,20.15
2018-01-21T18:17:27.653Z,20.20
2018-01-21T18:19:35.915Z,20.25
2018-01-21T18:21:42.716Z,20.25
2018-01-21T18:23:57.001Z,20.26
2018-01-21T18:26:08.716Z,20.26
2018-01-21T18:28:33.516Z,20.24
2018-01-21T18:30:43.744Z,20.36
2018-01-21T18:33:42.296Z,20.44
2018-01-21T18:36:08.720Z,20.43
2018-01-21T18:38:21.693Z,20.28
2018-01-21T18:41:07.055Z,20.38
2018-01-21T18:43:21.841Z,20.41
2018-01-21T18:45:56.349Z,20.38
2018-01-21T18:48:30.648Z,20.29
2018-01-21T18:50:38.163Z,20.32
2018-01-21T18:52:47.422Z,20.34
2018-01-21T18:54:54.667Z,20.46
2018-01-21T18:57:03.418Z,20.45
2018-01-21T18:59:11.667Z,20.52
2018-01-21T19:01:27.558Z,20.57
2018-01-21T19:03:43.501Z,20.58
2018-01-21T19:08:16.345Z,20.59
2018-01-21T19:10:34.328Z,20.58
2018-01-21T19:12:42.504Z,20.63
2018-01-21T19:14:55.417Z,20.72
2018-01-21T19:17:09.203Z,20.60
2018-01-21T19:21:45.864Z,20.61
2018-01-21T19:23:57.169Z,20.73
2018-01-21T19:26:07.160Z,20.59
2018-01-21T19:28:17.459Z,20.63
2018-01-21T19:30:28.220Z,20.46
2018-01-21T19:32:42.856Z,20.55
2018-01-21T19:35:09.576Z,20.72
2018-01-21T19:37:41.639Z,20.65
2018-01-21T19:40:03.355Z,20.65
2018-01-21T19:42:17.784Z,20.77
2018-01-21T19:44:28.918Z,20.64
2018-01-21T19:46:36.484Z,20.69
2018-01-21T19:48:46.171Z,20.75
2018-01-21T19:50:57.479Z,20.75
2018-01-21T19:53:05.848Z,20.80
2018-01-21T19:55:14.081Z,20.74
2018-01-21T19:57:23.370Z,20.76
2018-01-21T19:59:40.102Z,20.50
2018-01-21T20:01:50.394Z,20.47
2018-01-21T20:04:09.120Z,20.42
2018-01-21T20:06:17.041Z,20.54
2018-01-21T20:08:23.101Z,20.64
2018-01-21T20:10:34.637Z,20.53
2018-01-21T20:12:44.136Z,20.64
2018-01-21T20:14:52.810Z,20.67
2018-01-21T20:17:15.268Z,20.63
2018-01-21T20:19:25.856Z,20.66
2018-01-21T20:21:32.947Z,20.65
2018-01-21T20:23:40.579Z,20.69
2018-01-21T20:25:50.598Z,20.70
2018-01-21T20:27:59.199Z,20.68
2018-01-21T20:30:17.655Z,20.75
2018-01-21T20:32:38.901Z,20.74
2018-01-21T20:34:56.500Z,20.64
2018-01-21T20:37:04.708Z,20.67
2018-01-21T20:39:13.318Z,20.66
2018-01-21T20:41:26.602Z,20.67
2018-01-21T20:43:32.888Z,20.57
2018-01-21T20:45:57.730Z,20.57
2018-01-21T20:53:14.952Z,20.53
2018-01-21T20:55:32.336Z,20.58
2018-01-21T21:00:06.649Z,20.55
2018-01-21T21:02:14.677Z,20.63
2018-01-21T21:04:22.310Z,20.57
2018-01-21T21:06:31.103Z,20.64
2018-01-21T21:08:39.526Z,20.63
2018-01-21T21:10:47.420Z,20.58
2018-01-21T21:12:54.533Z,20.57
2018-01-21T21:15:07.469Z,20.60
2018-01-21T21:17:17.527Z,20.60
2018-01-21T21:19:28.014Z,20.74
2018-01-21T21:21:37.635Z,20.75
2018-01-21T21:23:45.162Z,20.73
2018-01-21T21:25:52.904Z,20.74
2018-01-21T21:28:02.189Z,20.78
2018-01-21T21:30:08.951Z,20.87
2018-01-21T21:32:16.139Z,20.84
2018-01-21T21:34:22.604Z,20.89
2018-01-21T21:36:32.146Z,20.84
2018-01-21T21:38:38.282Z,20.73
2018-01-21T21:40:44.658Z,20.73
2018-01-21T21:42:51.913Z,20.72
2018-01-21T21:45:01.812Z,20.71
2018-01-21T21:47:08.877Z,20.67
2018-01-21T21:54:01.354Z,20.68
2018-01-21T21:58:37.184Z,20.70
2018-01-21T22:00:46.649Z,20.73
2018-01-21T22:02:53.771Z,20.67
2018-01-21T22:05:02.840Z,20.70
2018-01-21T22:07:22.515Z,20.77
2018-01-21T22:09:34.748Z,20.71
2018-01-21T22:11:41.348Z,20.69
2018-01-21T22:13:48.441Z,20.65
2018-01-21T22:15:56.137Z,20.80
2018-01-21T22:18:02.439Z,20.97
2018-01-21T22:20:09.237Z,20.95
2018-01-21T22:22:18.374Z,21.02
2018-01-21T22:24:26.710Z,20.99
2018-01-21T22:26:33.290Z,20.93
2018-01-21T22:28:39.853Z,20.91
2018-01-21T22:30:48.624Z,20.96
2018-01-21T22:32:56.214Z,20.92
2018-01-21T22:35:02.129Z,20.86
2018-01-21T22:37:08.175Z,20.89
2018-01-21T22:39:14.338Z,20.91
2018-01-21T22:41:20.348Z,20.85
2018-01-21T22:43:29.136Z,20.86
2018-01-21T22:45:36.366Z,20.81
2018-01-21T22:47:43.510Z,20.78
2018-01-21T22:49:50.862Z,20.82
2018-01-21T22:51:59.301Z,20.77
2018-01-21T22:54:11.560Z,20.70
2018-01-21T22:56:17.936Z,20.65
2018-01-21T22:58:26.422Z,20.67
2018-01-21T23:00:32.795Z,20.65
2018-01-21T23:02:39.102Z,20.75
2018-01-21T23:04:45.719Z,20.71
2018-01-21T23:09:27.132Z,20.81
2018-01-21T23:11:33.353Z,20.76
2018-01-21T23:13:41.047Z,20.77
2018-01-21T23:15:49.182Z,20.76
2018-01-21T23:17:55.675Z,20.82
2018-01-21T23:20:02.199Z,20.84
2018-01-21T23:22:08.408Z,20.73
2018-01-21T23:24:15.716Z,20.87
2018-01-21T23:26:21.978Z,20.92
2018-01-21T23:28:31.078Z,20.87
2018-01-21T23:30:37.904Z,20.79
2018-01-21T23:32:43.987Z,20.87
2018-01-21T23:34:50.471Z,20.83
2018-01-21T23:36:58.701Z,20.87
2018-01-21T23:39:05.453Z,20.99
2018-01-21T23:41:11.378Z,20.85
2018-01-21T23:43:17.360Z,20.82
2018-01-21T23:45:23.309Z,20.66
2018-01-21T23:47:31.165Z,20.75
2018-01-21T23:49:37.353Z,20.82
2018-01-21T23:51:43.526Z,20.66
2018-01-21T23:53:50.172Z,20.67
2018-01-21T23:55:56.910Z,20.77
2018-01-21T23:58:02.741Z,20.70
